sensor_id;sensor_type;location;lat;lon;timestamp;temperature;humidity
7518;DHT22;3800;48.922;9.444;2023-04-15T00:01:57;4.30;99.90
7518;DHT22;3800;48.922;9.444;2023-04-15T00:04:24;4.20;99.90
7518;DHT22;3800;48.922;9.444;2023-04-15T00:06:52;4.20;99.90
7518;DHT22;3800;48.922;9.444;2023-04-15T00:09:20;4.20;99.90
7518;DHT22;3800;48.922;9.444;2023-04-15T00:11:49;4.20;99.90
7518;DHT22;3800;48.922;9.444;2023-04-15T00:14:17;4.10;99.90
7518;DHT22;3800;48.922;9.444;2023-04-15T00:16:45;4.10;99.90
7518;DHT22;3800;48.922;9.444;2023-04-15T00:19:13;4.10;99.90
7518;DHT22;3800;48.922;9.444;2023-04-15T00:21:41;4.10;99.90
7518;DHT22;3800;48.922;9.444;2023-04-15T00:24:10;4.10;99.90
7518;DHT22;3800;48.922;9.444;2023-04-15T00:26:38;4.10;99.90
7518;DHT22;3800;48.922;9.444;2023-04-15T00:29:07;4.10;99.90
7518;DHT22;3800;48.922;9.444;2023-04-15T00:31:36;4.20;99.90
7518;DHT22;3800;48.922;9.444;2023-04-15T00:34:04;4.20;99.90
7518;DHT22;3800;48.922;9.444;2023-04-15T00:36:32;4.20;99.90
7518;DHT22;3800;48.922;9.444;2023-04-15T00:39:01;4.20;99.90
7518;DHT22;3800;48.922;9.444;2023-04-15T00:41:29;4.10;99.90
7518;DHT22;3800;48.922;9.444;2023-04-15T00:43:57;4.10;99.90
7518;DHT22;3800;48.922;9.444;2023-04-15T00:46:25;4.10;99.90
7518;DHT22;3800;48.922;9.444;2023-04-15T00:48:54;4.10;99.90
7518;DHT22;3800;48.922;9.444;2023-04-15T00:51:22;4.10;99.90
7518;DHT22;3800;48.922;9.444;2023-04-15T00:53:50;4.10;99.90
7518;DHT22;3800;48.922;9.444;2023-04-15T00:56:19;3.90;99.90
7518;DHT22;3800;48.922;9.444;2023-04-15T00:58:47;3.80;99.90
7518;DHT22;3800;48.922;9.444;2023-04-15T01:01:15;3.80;99.90
7518;DHT22;3800;48.922;9.444;2023-04-15T01:03:43;3.70;99.90
7518;DHT22;3800;48.922;9.444;2023-04-15T01:06:11;3.80;99.90
7518;DHT22;3800;48.922;9.444;2023-04-15T01:08:41;3.80;99.90
7518;DHT22;3800;48.922;9.444;2023-04-15T01:11:09;3.70;99.90
7518;DHT22;3800;48.922;9.444;2023-04-15T01:13:37;3.70;99.90
7518;DHT22;3800;48.922;9.444;2023-04-15T01:16:06;3.80;99.90
7518;DHT22;3800;48.922;9.444;2023-04-15T01:18:35;3.80;99.90
7518;DHT22;3800;48.922;9.444;2023-04-15T01:21:03;3.80;99.90
7518;DHT22;3800;48.922;9.444;2023-04-15T01:23:35;3.80;99.90
7518;DHT22;3800;48.922;9.444;2023-04-15T01:25:59;3.80;99.90
7518;DHT22;3800;48.922;9.444;2023-04-15T01:28:28;3.80;99.90
7518;DHT22;3800;48.922;9.444;2023-04-15T01:31:06;3.80;99.90
7518;DHT22;3800;48.922;9.444;2023-04-15T01:33:35;3.80;99.90
7518;DHT22;3800;48.922;9.444;2023-04-15T01:36:03;3.80;99.90
7518;DHT22;3800;48.922;9.444;2023-04-15T01:38:32;3.70;99.90
7518;DHT22;3800;48.922;9.444;2023-04-15T01:41:00;3.70;99.90
7518;DHT22;3800;48.922;9.444;2023-04-15T01:43:29;3.60;99.90
7518;DHT22;3800;48.922;9.444;2023-04-15T01:45:57;3.60;99.90
7518;DHT22;3800;48.922;9.444;2023-04-15T01:48:25;3.60;99.90
7518;DHT22;3800;48.922;9.444;2023-04-15T01:50:54;3.50;99.90
7518;DHT22;3800;48.922;9.444;2023-04-15T01:53:23;3.50;99.90
7518;DHT22;3800;48.922;9.444;2023-04-15T01:55:51;3.50;99.90
7518;DHT22;3800;48.922;9.444;2023-04-15T01:58:20;3.50;99.90
7518;DHT22;3800;48.922;9.444;2023-04-15T02:00:48;3.50;99.90
7518;DHT22;3800;48.922;9.444;2023-04-15T02:03:17;3.40;99.90
7518;DHT22;3800;48.922;9.444;2023-04-15T02:05:45;3.40;99.90
7518;DHT22;3800;48.922;9.444;2023-04-15T02:08:13;3.40;99.90
7518;DHT22;3800;48.922;9.444;2023-04-15T02:10:41;3.30;99.90
7518;DHT22;3800;48.922;9.444;2023-04-15T02:13:10;3.30;99.90
7518;DHT22;3800;48.922;9.444;2023-04-15T02:15:38;3.30;99.90
7518;DHT22;3800;48.922;9.444;2023-04-15T02:18:06;3.30;99.90
7518;DHT22;3800;48.922;9.444;2023-04-15T02:20:34;3.30;99.90
7518;DHT22;3800;48.922;9.444;2023-04-15T02:23:03;3.20;99.90
7518;DHT22;3800;48.922;9.444;2023-04-15T02:25:31;3.20;99.90
7518;DHT22;3800;48.922;9.444;2023-04-15T02:27:59;3.30;99.90
7518;DHT22;3800;48.922;9.444;2023-04-15T02:30:27;3.20;99.90
7518;DHT22;3800;48.922;9.444;2023-04-15T02:32:56;3.10;99.90
7518;DHT22;3800;48.922;9.444;2023-04-15T02:35:25;3.00;99.90
7518;DHT22;3800;48.922;9.444;2023-04-15T02:37:53;3.00;99.90
7518;DHT22;3800;48.922;9.444;2023-04-15T02:40:21;3.00;99.90
7518;DHT22;3800;48.922;9.444;2023-04-15T02:42:49;3.00;99.90
7518;DHT22;3800;48.922;9.444;2023-04-15T02:45:18;3.00;99.90
7518;DHT22;3800;48.922;9.444;2023-04-15T02:47:46;3.00;99.90
7518;DHT22;3800;48.922;9.444;2023-04-15T02:50:15;3.00;99.90
7518;DHT22;3800;48.922;9.444;2023-04-15T02:52:43;3.00;99.90
7518;DHT22;3800;48.922;9.444;2023-04-15T02:55:11;2.90;99.90
7518;DHT22;3800;48.922;9.444;2023-04-15T02:57:40;3.00;99.90
7518;DHT22;3800;48.922;9.444;2023-04-15T03:00:08;2.90;99.90
7518;DHT22;3800;48.922;9.444;2023-04-15T03:02:37;2.80;99.90
7518;DHT22;3800;48.922;9.444;2023-04-15T03:05:06;2.80;99.90
7518;DHT22;3800;48.922;9.444;2023-04-15T03:07:35;2.80;99.90
7518;DHT22;3800;48.922;9.444;2023-04-15T03:10:03;2.80;99.90
7518;DHT22;3800;48.922;9.444;2023-04-15T03:12:31;2.80;99.90
7518;DHT22;3800;48.922;9.444;2023-04-15T03:14:59;2.80;99.90
7518;DHT22;3800;48.922;9.444;2023-04-15T03:17:28;2.80;99.90
7518;DHT22;3800;48.922;9.444;2023-04-15T03:19:57;2.70;99.90
7518;DHT22;3800;48.922;9.444;2023-04-15T03:22:25;2.70;99.90
7518;DHT22;3800;48.922;9.444;2023-04-15T03:24:53;2.70;99.90
7518;DHT22;3800;48.922;9.444;2023-04-15T03:27:22;2.60;99.90
7518;DHT22;3800;48.922;9.444;2023-04-15T03:29:50;2.60;99.90
7518;DHT22;3800;48.922;9.444;2023-04-15T03:32:18;2.60;99.90
7518;DHT22;3800;48.922;9.444;2023-04-15T03:34:46;2.60;99.90
7518;DHT22;3800;48.922;9.444;2023-04-15T03:37:14;2.60;99.90
7518;DHT22;3800;48.922;9.444;2023-04-15T03:39:43;2.60;99.90
7518;DHT22;3800;48.922;9.444;2023-04-15T03:42:12;2.60;99.90
7518;DHT22;3800;48.922;9.444;2023-04-15T03:44:40;2.60;99.90
7518;DHT22;3800;48.922;9.444;2023-04-15T03:47:08;2.60;99.90
7518;DHT22;3800;48.922;9.444;2023-04-15T03:49:36;2.70;99.90
7518;DHT22;3800;48.922;9.444;2023-04-15T03:52:05;2.70;99.90
7518;DHT22;3800;48.922;9.444;2023-04-15T03:54:33;2.80;99.90
7518;DHT22;3800;48.922;9.444;2023-04-15T03:57:01;2.80;99.90
7518;DHT22;3800;48.922;9.444;2023-04-15T03:59:29;2.80;99.90
7518;DHT22;3800;48.922;9.444;2023-04-15T04:01:58;2.80;99.90
7518;DHT22;3800;48.922;9.444;2023-04-15T04:04:26;2.70;99.90
7518;DHT22;3800;48.922;9.444;2023-04-15T04:06:55;2.60;99.90
7518;DHT22;3800;48.922;9.444;2023-04-15T04:09:23;2.50;99.90
7518;DHT22;3800;48.922;9.444;2023-04-15T04:11:51;2.60;99.90
7518;DHT22;3800;48.922;9.444;2023-04-15T04:14:20;2.60;99.90
7518;DHT22;3800;48.922;9.444;2023-04-15T04:16:48;2.50;99.90
7518;DHT22;3800;48.922;9.444;2023-04-15T04:19:16;2.60;99.90
7518;DHT22;3800;48.922;9.444;2023-04-15T04:21:44;2.50;99.90
7518;DHT22;3800;48.922;9.444;2023-04-15T04:24:13;2.60;99.90
7518;DHT22;3800;48.922;9.444;2023-04-15T04:26:41;2.60;99.90
7518;DHT22;3800;48.922;9.444;2023-04-15T04:29:09;2.60;99.90
7518;DHT22;3800;48.922;9.444;2023-04-15T04:31:37;2.60;99.90
7518;DHT22;3800;48.922;9.444;2023-04-15T04:34:06;2.60;99.90
7518;DHT22;3800;48.922;9.444;2023-04-15T04:36:35;2.60;99.90
7518;DHT22;3800;48.922;9.444;2023-04-15T04:39:03;2.60;99.90
7518;DHT22;3800;48.922;9.444;2023-04-15T04:41:31;2.60;99.90
7518;DHT22;3800;48.922;9.444;2023-04-15T04:43:59;2.50;99.90
7518;DHT22;3800;48.922;9.444;2023-04-15T04:46:28;2.50;99.90
7518;DHT22;3800;48.922;9.444;2023-04-15T04:48:56;2.50;99.90
7518;DHT22;3800;48.922;9.444;2023-04-15T04:51:24;2.50;99.90
7518;DHT22;3800;48.922;9.444;2023-04-15T04:53:53;2.50;99.90
7518;DHT22;3800;48.922;9.444;2023-04-15T04:56:22;2.50;99.90
7518;DHT22;3800;48.922;9.444;2023-04-15T04:58:50;2.50;99.90
7518;DHT22;3800;48.922;9.444;2023-04-15T05:01:18;2.50;99.90
7518;DHT22;3800;48.922;9.444;2023-04-15T05:03:46;2.50;99.90
7518;DHT22;3800;48.922;9.444;2023-04-15T05:06:14;2.50;99.90
7518;DHT22;3800;48.922;9.444;2023-04-15T05:08:43;2.50;99.90
7518;DHT22;3800;48.922;9.444;2023-04-15T05:11:11;2.40;99.90
7518;DHT22;3800;48.922;9.444;2023-04-15T05:13:39;2.50;99.90
7518;DHT22;3800;48.922;9.444;2023-04-15T05:16:07;2.50;99.90
7518;DHT22;3800;48.922;9.444;2023-04-15T05:18:36;2.50;99.90
7518;DHT22;3800;48.922;9.444;2023-04-15T05:21:04;2.50;99.90
7518;DHT22;3800;48.922;9.444;2023-04-15T05:23:32;2.50;99.90
7518;DHT22;3800;48.922;9.444;2023-04-15T05:26:01;2.50;99.90
7518;DHT22;3800;48.922;9.444;2023-04-15T05:28:29;2.50;99.90
7518;DHT22;3800;48.922;9.444;2023-04-15T05:30:58;2.40;99.90
7518;DHT22;3800;48.922;9.444;2023-04-15T05:33:26;2.50;99.90
7518;DHT22;3800;48.922;9.444;2023-04-15T05:35:54;2.50;99.90
7518;DHT22;3800;48.922;9.444;2023-04-15T05:38:22;2.30;99.90
7518;DHT22;3800;48.922;9.444;2023-04-15T05:40:52;2.20;99.90
7518;DHT22;3800;48.922;9.444;2023-04-15T05:43:21;2.30;99.90
7518;DHT22;3800;48.922;9.444;2023-04-15T05:45:49;2.30;99.90
7518;DHT22;3800;48.922;9.444;2023-04-15T05:48:17;2.30;99.90
7518;DHT22;3800;48.922;9.444;2023-04-15T05:50:46;2.40;99.90
7518;DHT22;3800;48.922;9.444;2023-04-15T05:53:14;2.40;99.90
7518;DHT22;3800;48.922;9.444;2023-04-15T05:55:42;2.40;99.90
7518;DHT22;3800;48.922;9.444;2023-04-15T05:58:10;2.40;99.90
7518;DHT22;3800;48.922;9.444;2023-04-15T06:00:39;2.40;99.90
7518;DHT22;3800;48.922;9.444;2023-04-15T06:03:08;2.40;99.90
7518;DHT22;3800;48.922;9.444;2023-04-15T06:05:36;2.50;99.90
7518;DHT22;3800;48.922;9.444;2023-04-15T06:08:04;2.50;99.90
7518;DHT22;3800;48.922;9.444;2023-04-15T06:10:34;2.60;99.90
7518;DHT22;3800;48.922;9.444;2023-04-15T06:13:02;2.70;99.90
7518;DHT22;3800;48.922;9.444;2023-04-15T06:15:30;2.80;99.90
7518;DHT22;3800;48.922;9.444;2023-04-15T06:17:58;3.00;99.90
7518;DHT22;3800;48.922;9.444;2023-04-15T06:20:26;3.10;99.90
7518;DHT22;3800;48.922;9.444;2023-04-15T06:22:54;3.20;99.90
7518;DHT22;3800;48.922;9.444;2023-04-15T06:25:23;3.40;99.90
7518;DHT22;3800;48.922;9.444;2023-04-15T06:27:51;3.50;99.90
7518;DHT22;3800;48.922;9.444;2023-04-15T06:30:19;3.70;99.90
7518;DHT22;3800;48.922;9.444;2023-04-15T06:32:47;3.80;99.90
7518;DHT22;3800;48.922;9.444;2023-04-15T06:35:16;4.10;99.90
7518;DHT22;3800;48.922;9.444;2023-04-15T06:37:45;4.10;99.90
7518;DHT22;3800;48.922;9.444;2023-04-15T06:40:14;4.20;99.90
7518;DHT22;3800;48.922;9.444;2023-04-15T06:42:42;4.40;99.90
7518;DHT22;3800;48.922;9.444;2023-04-15T06:45:10;4.50;99.90
7518;DHT22;3800;48.922;9.444;2023-04-15T06:47:39;4.70;99.90
7518;DHT22;3800;48.922;9.444;2023-04-15T06:50:07;4.80;99.90
7518;DHT22;3800;48.922;9.444;2023-04-15T06:52:36;5.00;99.90
7518;DHT22;3800;48.922;9.444;2023-04-15T06:55:04;5.10;99.90
7518;DHT22;3800;48.922;9.444;2023-04-15T06:57:33;5.30;99.90
7518;DHT22;3800;48.922;9.444;2023-04-15T07:00:02;5.50;99.90
7518;DHT22;3800;48.922;9.444;2023-04-15T07:02:30;5.50;99.90
7518;DHT22;3800;48.922;9.444;2023-04-15T07:04:58;5.70;99.90
7518;DHT22;3800;48.922;9.444;2023-04-15T07:07:27;5.70;99.90
7518;DHT22;3800;48.922;9.444;2023-04-15T07:09:55;5.80;99.90
7518;DHT22;3800;48.922;9.444;2023-04-15T07:12:23;6.00;99.90
7518;DHT22;3800;48.922;9.444;2023-04-15T07:14:51;6.10;99.90
7518;DHT22;3800;48.922;9.444;2023-04-15T07:17:20;6.20;99.90
7518;DHT22;3800;48.922;9.444;2023-04-15T07:19:48;6.20;99.90
7518;DHT22;3800;48.922;9.444;2023-04-15T07:22:16;6.30;99.90
7518;DHT22;3800;48.922;9.444;2023-04-15T07:24:45;6.40;99.90
7518;DHT22;3800;48.922;9.444;2023-04-15T07:27:13;6.60;99.90
7518;DHT22;3800;48.922;9.444;2023-04-15T07:29:42;6.90;99.90
7518;DHT22;3800;48.922;9.444;2023-04-15T07:32:10;6.80;99.90
7518;DHT22;3800;48.922;9.444;2023-04-15T07:34:39;7.10;99.90
7518;DHT22;3800;48.922;9.444;2023-04-15T07:37:08;7.20;99.90
7518;DHT22;3800;48.922;9.444;2023-04-15T07:39:36;7.10;99.90
7518;DHT22;3800;48.922;9.444;2023-04-15T07:42:04;7.30;99.90
7518;DHT22;3800;48.922;9.444;2023-04-15T07:44:33;7.40;99.90
7518;DHT22;3800;48.922;9.444;2023-04-15T07:47:01;7.50;99.90
7518;DHT22;3800;48.922;9.444;2023-04-15T07:49:30;7.60;99.90
7518;DHT22;3800;48.922;9.444;2023-04-15T07:51:58;7.60;99.90
7518;DHT22;3800;48.922;9.444;2023-04-15T07:54:26;7.60;99.90
7518;DHT22;3800;48.922;9.444;2023-04-15T07:56:55;7.70;99.90
7518;DHT22;3800;48.922;9.444;2023-04-15T07:59:23;7.80;99.90
7518;DHT22;3800;48.922;9.444;2023-04-15T08:01:51;7.90;99.90
7518;DHT22;3800;48.922;9.444;2023-04-15T08:04:19;8.20;99.90
7518;DHT22;3800;48.922;9.444;2023-04-15T08:06:48;8.30;99.90
7518;DHT22;3800;48.922;9.444;2023-04-15T08:09:16;8.40;99.90
7518;DHT22;3800;48.922;9.444;2023-04-15T08:11:45;8.40;99.90
7518;DHT22;3800;48.922;9.444;2023-04-15T08:14:12;8.50;99.90
7518;DHT22;3800;48.922;9.444;2023-04-15T08:16:41;8.60;99.90
7518;DHT22;3800;48.922;9.444;2023-04-15T08:19:09;8.70;99.90
7518;DHT22;3800;48.922;9.444;2023-04-15T08:21:37;8.80;99.90
7518;DHT22;3800;48.922;9.444;2023-04-15T08:24:05;8.90;99.90
7518;DHT22;3800;48.922;9.444;2023-04-15T08:26:34;9.00;99.90
7518;DHT22;3800;48.922;9.444;2023-04-15T08:29:02;9.10;99.90
7518;DHT22;3800;48.922;9.444;2023-04-15T08:31:30;9.10;99.90
7518;DHT22;3800;48.922;9.444;2023-04-15T08:33:58;9.10;99.90
7518;DHT22;3800;48.922;9.444;2023-04-15T08:36:27;9.10;99.90
7518;DHT22;3800;48.922;9.444;2023-04-15T08:38:55;9.20;99.90
7518;DHT22;3800;48.922;9.444;2023-04-15T08:41:24;9.30;99.90
7518;DHT22;3800;48.922;9.444;2023-04-15T08:43:53;9.60;99.90
7518;DHT22;3800;48.922;9.444;2023-04-15T08:46:24;9.70;99.90
7518;DHT22;3800;48.922;9.444;2023-04-15T08:48:53;9.80;99.90
7518;DHT22;3800;48.922;9.444;2023-04-15T08:51:20;9.80;99.90
7518;DHT22;3800;48.922;9.444;2023-04-15T08:53:49;9.80;99.90
7518;DHT22;3800;48.922;9.444;2023-04-15T08:56:17;9.80;99.90
7518;DHT22;3800;48.922;9.444;2023-04-15T08:58:46;9.80;99.90
7518;DHT22;3800;48.922;9.444;2023-04-15T09:01:14;9.90;99.90
7518;DHT22;3800;48.922;9.444;2023-04-15T09:03:42;9.90;99.90
7518;DHT22;3800;48.922;9.444;2023-04-15T09:06:10;10.10;99.90
7518;DHT22;3800;48.922;9.444;2023-04-15T09:08:39;10.20;99.90
7518;DHT22;3800;48.922;9.444;2023-04-15T09:11:07;10.40;99.90
7518;DHT22;3800;48.922;9.444;2023-04-15T09:13:35;10.50;99.90
7518;DHT22;3800;48.922;9.444;2023-04-15T09:16:05;10.60;99.90
7518;DHT22;3800;48.922;9.444;2023-04-15T09:18:33;10.60;99.90
7518;DHT22;3800;48.922;9.444;2023-04-15T09:21:03;10.60;99.90
7518;DHT22;3800;48.922;9.444;2023-04-15T09:23:33;10.90;99.90
7518;DHT22;3800;48.922;9.444;2023-04-15T09:26:01;10.90;99.90
7518;DHT22;3800;48.922;9.444;2023-04-15T09:28:29;11.10;99.90
7518;DHT22;3800;48.922;9.444;2023-04-15T09:30:59;11.30;99.90
7518;DHT22;3800;48.922;9.444;2023-04-15T09:33:27;11.50;99.90
7518;DHT22;3800;48.922;9.444;2023-04-15T09:35:56;11.70;99.90
7518;DHT22;3800;48.922;9.444;2023-04-15T09:38:27;11.90;99.90
7518;DHT22;3800;48.922;9.444;2023-04-15T09:40:56;11.90;99.90
7518;DHT22;3800;48.922;9.444;2023-04-15T09:43:36;12.10;99.90
7518;DHT22;3800;48.922;9.444;2023-04-15T09:46:04;12.00;99.90
7518;DHT22;3800;48.922;9.444;2023-04-15T09:48:32;12.20;99.90
7518;DHT22;3800;48.922;9.444;2023-04-15T09:51:00;12.40;99.90
7518;DHT22;3800;48.922;9.444;2023-04-15T09:53:28;12.40;99.90
7518;DHT22;3800;48.922;9.444;2023-04-15T09:55:58;12.80;99.90
7518;DHT22;3800;48.922;9.444;2023-04-15T09:58:30;12.80;99.90
7518;DHT22;3800;48.922;9.444;2023-04-15T10:00:57;12.80;99.90
7518;DHT22;3800;48.922;9.444;2023-04-15T10:03:26;12.70;99.90
7518;DHT22;3800;48.922;9.444;2023-04-15T10:05:55;12.60;99.90
7518;DHT22;3800;48.922;9.444;2023-04-15T10:08:24;12.60;99.90
7518;DHT22;3800;48.922;9.444;2023-04-15T10:10:52;12.60;99.90
7518;DHT22;3800;48.922;9.444;2023-04-15T10:13:22;12.70;99.90
7518;DHT22;3800;48.922;9.444;2023-04-15T10:15:57;12.70;99.90
7518;DHT22;3800;48.922;9.444;2023-04-15T10:18:25;12.70;99.90
7518;DHT22;3800;48.922;9.444;2023-04-15T10:20:52;12.70;99.90
7518;DHT22;3800;48.922;9.444;2023-04-15T10:23:21;12.70;99.90
7518;DHT22;3800;48.922;9.444;2023-04-15T10:25:50;12.80;99.90
7518;DHT22;3800;48.922;9.444;2023-04-15T10:28:17;12.80;99.90
7518;DHT22;3800;48.922;9.444;2023-04-15T10:30:45;12.80;99.90
7518;DHT22;3800;48.922;9.444;2023-04-15T10:33:14;12.80;99.90
7518;DHT22;3800;48.922;9.444;2023-04-15T10:35:43;12.80;99.90
7518;DHT22;3800;48.922;9.444;2023-04-15T10:38:52;12.80;99.90
7518;DHT22;3800;48.922;9.444;2023-04-15T10:41:11;12.90;99.90
7518;DHT22;3800;48.922;9.444;2023-04-15T10:43:39;12.90;99.90
7518;DHT22;3800;48.922;9.444;2023-04-15T10:46:08;12.90;99.90
7518;DHT22;3800;48.922;9.444;2023-04-15T10:48:36;12.90;99.90
7518;DHT22;3800;48.922;9.444;2023-04-15T10:51:04;12.90;99.90
7518;DHT22;3800;48.922;9.444;2023-04-15T10:53:33;13.00;99.90
7518;DHT22;3800;48.922;9.444;2023-04-15T10:56:01;13.00;99.90
7518;DHT22;3800;48.922;9.444;2023-04-15T10:58:31;13.00;99.70
7518;DHT22;3800;48.922;9.444;2023-04-15T11:00:57;13.10;99.80
7518;DHT22;3800;48.922;9.444;2023-04-15T11:03:36;12.90;99.90
7518;DHT22;3800;48.922;9.444;2023-04-15T11:06:05;12.90;99.90
7518;DHT22;3800;48.922;9.444;2023-04-15T11:11:18;12.90;99.90
7518;DHT22;3800;48.922;9.444;2023-04-15T11:13:48;12.90;99.90
7518;DHT22;3800;48.922;9.444;2023-04-15T11:16:17;12.80;99.90
7518;DHT22;3800;48.922;9.444;2023-04-15T11:18:52;12.80;99.90
7518;DHT22;3800;48.922;9.444;2023-04-15T11:21:21;12.80;99.90
7518;DHT22;3800;48.922;9.444;2023-04-15T11:23:48;12.80;99.90
7518;DHT22;3800;48.922;9.444;2023-04-15T11:26:16;12.70;99.90
7518;DHT22;3800;48.922;9.444;2023-04-15T11:28:45;12.70;99.90
7518;DHT22;3800;48.922;9.444;2023-04-15T11:31:14;12.70;99.90
7518;DHT22;3800;48.922;9.444;2023-04-15T11:34:01;12.70;99.90
7518;DHT22;3800;48.922;9.444;2023-04-15T11:36:28;12.60;99.90
7518;DHT22;3800;48.922;9.444;2023-04-15T11:38:57;12.60;99.90
7518;DHT22;3800;48.922;9.444;2023-04-15T11:41:24;12.50;99.90
7518;DHT22;3800;48.922;9.444;2023-04-15T11:43:53;12.50;99.90
7518;DHT22;3800;48.922;9.444;2023-04-15T11:46:27;12.50;99.90
7518;DHT22;3800;48.922;9.444;2023-04-15T11:48:50;12.40;99.90
7518;DHT22;3800;48.922;9.444;2023-04-15T11:51:18;12.50;99.90
7518;DHT22;3800;48.922;9.444;2023-04-15T11:53:47;12.50;99.90
7518;DHT22;3800;48.922;9.444;2023-04-15T11:56:20;12.50;99.90
7518;DHT22;3800;48.922;9.444;2023-04-15T11:58:49;12.50;99.90
7518;DHT22;3800;48.922;9.444;2023-04-15T12:01:17;12.50;99.60
7518;DHT22;3800;48.922;9.444;2023-04-15T12:03:45;12.50;99.60
7518;DHT22;3800;48.922;9.444;2023-04-15T12:06:16;12.50;99.50
7518;DHT22;3800;48.922;9.444;2023-04-15T12:09:08;12.50;99.50
7518;DHT22;3800;48.922;9.444;2023-04-15T12:11:39;12.50;98.90
7518;DHT22;3800;48.922;9.444;2023-04-15T12:14:15;12.50;99.00
7518;DHT22;3800;48.922;9.444;2023-04-15T12:16:44;12.50;99.00
7518;DHT22;3800;48.922;9.444;2023-04-15T12:19:12;12.50;99.80
7518;DHT22;3800;48.922;9.444;2023-04-15T12:21:43;12.40;99.00
7518;DHT22;3800;48.922;9.444;2023-04-15T12:24:10;12.40;99.00
7518;DHT22;3800;48.922;9.444;2023-04-15T12:26:49;12.40;99.90
7518;DHT22;3800;48.922;9.444;2023-04-15T12:29:16;12.40;99.90
7518;DHT22;3800;48.922;9.444;2023-04-15T12:31:49;12.40;99.90
7518;DHT22;3800;48.922;9.444;2023-04-15T12:34:17;12.40;99.90
7518;DHT22;3800;48.922;9.444;2023-04-15T12:36:45;12.40;99.90
7518;DHT22;3800;48.922;9.444;2023-04-15T12:39:14;12.30;97.50
7518;DHT22;3800;48.922;9.444;2023-04-15T12:41:42;12.30;97.20
7518;DHT22;3800;48.922;9.444;2023-04-15T12:44:11;12.20;95.70
7518;DHT22;3800;48.922;9.444;2023-04-15T12:46:39;12.10;93.00
7518;DHT22;3800;48.922;9.444;2023-04-15T12:49:07;12.00;94.20
7518;DHT22;3800;48.922;9.444;2023-04-15T12:51:35;11.90;93.50
7518;DHT22;3800;48.922;9.444;2023-04-15T12:54:04;11.80;95.20
7518;DHT22;3800;48.922;9.444;2023-04-15T12:56:33;11.80;95.20
7518;DHT22;3800;48.922;9.444;2023-04-15T12:59:01;11.70;96.20
7518;DHT22;3800;48.922;9.444;2023-04-15T13:01:29;11.70;95.30
7518;DHT22;3800;48.922;9.444;2023-04-15T13:03:57;11.70;96.40
7518;DHT22;3800;48.922;9.444;2023-04-15T13:06:26;11.70;95.60
7518;DHT22;3800;48.922;9.444;2023-04-15T13:08:54;11.60;94.00
7518;DHT22;3800;48.922;9.444;2023-04-15T13:11:23;11.60;94.90
7518;DHT22;3800;48.922;9.444;2023-04-15T13:13:51;11.60;95.00
7518;DHT22;3800;48.922;9.444;2023-04-15T13:16:21;11.50;95.10
7518;DHT22;3800;48.922;9.444;2023-04-15T13:18:49;11.50;95.40
7518;DHT22;3800;48.922;9.444;2023-04-15T13:21:18;11.50;95.40
7518;DHT22;3800;48.922;9.444;2023-04-15T13:23:47;11.50;95.90
7518;DHT22;3800;48.922;9.444;2023-04-15T13:26:14;11.50;95.70
7518;DHT22;3800;48.922;9.444;2023-04-15T13:28:42;11.50;95.10
7518;DHT22;3800;48.922;9.444;2023-04-15T13:31:11;11.40;94.10
7518;DHT22;3800;48.922;9.444;2023-04-15T13:33:39;11.40;94.40
7518;DHT22;3800;48.922;9.444;2023-04-15T13:36:07;11.40;94.60
7518;DHT22;3800;48.922;9.444;2023-04-15T13:38:35;11.40;96.00
7518;DHT22;3800;48.922;9.444;2023-04-15T13:41:04;11.40;96.30
7518;DHT22;3800;48.922;9.444;2023-04-15T13:43:33;11.40;96.70
7518;DHT22;3800;48.922;9.444;2023-04-15T13:46:01;11.30;94.60
7518;DHT22;3800;48.922;9.444;2023-04-15T13:48:29;11.30;94.80
7518;DHT22;3800;48.922;9.444;2023-04-15T13:50:58;11.30;93.90
7518;DHT22;3800;48.922;9.444;2023-04-15T13:53:26;11.30;93.70
7518;DHT22;3800;48.922;9.444;2023-04-15T13:55:54;11.30;94.20
7518;DHT22;3800;48.922;9.444;2023-04-15T13:58:22;11.20;94.00
7518;DHT22;3800;48.922;9.444;2023-04-15T14:00:51;11.30;94.80
7518;DHT22;3800;48.922;9.444;2023-04-15T14:03:19;11.20;94.80
7518;DHT22;3800;48.922;9.444;2023-04-15T14:05:48;11.20;94.90
7518;DHT22;3800;48.922;9.444;2023-04-15T14:08:18;11.10;96.10
7518;DHT22;3800;48.922;9.444;2023-04-15T14:10:46;11.10;96.00
7518;DHT22;3800;48.922;9.444;2023-04-15T14:13:14;11.00;96.00
7518;DHT22;3800;48.922;9.444;2023-04-15T14:15:43;11.10;96.20
7518;DHT22;3800;48.922;9.444;2023-04-15T14:18:11;11.00;96.30
7518;DHT22;3800;48.922;9.444;2023-04-15T14:20:39;11.00;96.70
7518;DHT22;3800;48.922;9.444;2023-04-15T14:23:07;10.90;97.20
7518;DHT22;3800;48.922;9.444;2023-04-15T14:25:36;10.90;96.90
7518;DHT22;3800;48.922;9.444;2023-04-15T14:28:04;10.90;97.30
7518;DHT22;3800;48.922;9.444;2023-04-15T14:30:32;10.80;97.50
7518;DHT22;3800;48.922;9.444;2023-04-15T14:33:01;10.90;98.30
7518;DHT22;3800;48.922;9.444;2023-04-15T14:35:30;10.90;98.30
7518;DHT22;3800;48.922;9.444;2023-04-15T14:37:58;10.80;97.70
7518;DHT22;3800;48.922;9.444;2023-04-15T14:40:26;10.80;97.90
7518;DHT22;3800;48.922;9.444;2023-04-15T14:42:55;10.80;98.30
7518;DHT22;3800;48.922;9.444;2023-04-15T14:45:24;10.80;98.40
7518;DHT22;3800;48.922;9.444;2023-04-15T14:47:53;10.80;98.60
7518;DHT22;3800;48.922;9.444;2023-04-15T14:50:22;10.80;99.00
7518;DHT22;3800;48.922;9.444;2023-04-15T14:52:50;10.80;99.00
7518;DHT22;3800;48.922;9.444;2023-04-15T14:55:18;10.80;98.90
7518;DHT22;3800;48.922;9.444;2023-04-15T14:57:47;10.80;98.50
7518;DHT22;3800;48.922;9.444;2023-04-15T15:00:15;10.70;99.20
7518;DHT22;3800;48.922;9.444;2023-04-15T15:02:44;10.70;99.90
7518;DHT22;3800;48.922;9.444;2023-04-15T15:05:13;10.70;99.90
7518;DHT22;3800;48.922;9.444;2023-04-15T15:07:41;10.70;99.90
7518;DHT22;3800;48.922;9.444;2023-04-15T15:10:09;10.70;99.80
7518;DHT22;3800;48.922;9.444;2023-04-15T15:12:37;10.70;99.90
7518;DHT22;3800;48.922;9.444;2023-04-15T15:15:06;10.60;99.90
7518;DHT22;3800;48.922;9.444;2023-04-15T15:17:34;10.70;99.90
7518;DHT22;3800;48.922;9.444;2023-04-15T15:20:04;10.60;99.90
7518;DHT22;3800;48.922;9.444;2023-04-15T15:22:33;10.50;99.90
7518;DHT22;3800;48.922;9.444;2023-04-15T15:25:01;10.50;99.90
7518;DHT22;3800;48.922;9.444;2023-04-15T15:27:30;10.50;99.90
7518;DHT22;3800;48.922;9.444;2023-04-15T15:29:59;10.50;99.90
7518;DHT22;3800;48.922;9.444;2023-04-15T15:32:27;10.50;99.90
7518;DHT22;3800;48.922;9.444;2023-04-15T15:34:56;10.50;99.90
7518;DHT22;3800;48.922;9.444;2023-04-15T15:37:24;10.50;99.90
7518;DHT22;3800;48.922;9.444;2023-04-15T15:39:53;10.40;99.90
7518;DHT22;3800;48.922;9.444;2023-04-15T15:42:21;10.30;99.90
7518;DHT22;3800;48.922;9.444;2023-04-15T15:44:50;10.00;99.90
7518;DHT22;3800;48.922;9.444;2023-04-15T15:47:20;10.00;99.90
7518;DHT22;3800;48.922;9.444;2023-04-15T15:49:47;9.90;99.90
7518;DHT22;3800;48.922;9.444;2023-04-15T15:52:16;9.80;99.90
7518;DHT22;3800;48.922;9.444;2023-04-15T15:54:45;9.70;99.90
7518;DHT22;3800;48.922;9.444;2023-04-15T15:57:14;9.60;99.90
7518;DHT22;3800;48.922;9.444;2023-04-15T15:59:43;9.40;99.90
7518;DHT22;3800;48.922;9.444;2023-04-15T16:02:11;9.40;99.90
7518;DHT22;3800;48.922;9.444;2023-04-15T16:04:40;9.30;99.90
7518;DHT22;3800;48.922;9.444;2023-04-15T16:07:09;9.30;99.90
7518;DHT22;3800;48.922;9.444;2023-04-15T16:09:36;9.20;99.90
7518;DHT22;3800;48.922;9.444;2023-04-15T16:12:05;9.20;99.90
7518;DHT22;3800;48.922;9.444;2023-04-15T16:14:33;9.10;99.90
7518;DHT22;3800;48.922;9.444;2023-04-15T16:17:02;9.00;99.90
7518;DHT22;3800;48.922;9.444;2023-04-15T16:19:30;9.00;99.90
7518;DHT22;3800;48.922;9.444;2023-04-15T16:21:59;9.00;99.90
7518;DHT22;3800;48.922;9.444;2023-04-15T16:24:27;8.90;99.90